sensor_id;sensor_type;location;lat;lon;timestamp;temperature;humidity
78054;DHT22;67726;45.636;11.752;2024-03-25T00:02:09;7.90;97.40
78054;DHT22;67726;45.636;11.752;2024-03-25T00:04:35;7.90;96.40
78054;DHT22;67726;45.636;11.752;2024-03-25T00:07:00;7.80;96.20
78054;DHT22;67726;45.636;11.752;2024-03-25T00:09:27;7.90;96.30
78054;DHT22;67726;45.636;11.752;2024-03-25T00:11:52;7.90;95.70
78054;DHT22;67726;45.636;11.752;2024-03-25T00:14:20;7.80;95.60
78054;DHT22;67726;45.636;11.752;2024-03-25T00:16:46;7.70;95.50
78054;DHT22;67726;45.636;11.752;2024-03-25T00:19:12;7.80;94.90
78054;DHT22;67726;45.636;11.752;2024-03-25T00:21:38;7.60;96.90
78054;DHT22;67726;45.636;11.752;2024-03-25T00:24:03;7.60;96.30
78054;DHT22;67726;45.636;11.752;2024-03-25T00:26:29;7.40;96.20
78054;DHT22;67726;45.636;11.752;2024-03-25T00:28:55;7.50;96.20
78054;DHT22;67726;45.636;11.752;2024-03-25T00:31:20;7.60;96.90
78054;DHT22;67726;45.636;11.752;2024-03-25T00:33:46;7.50;96.80
78054;DHT22;67726;45.636;11.752;2024-03-25T00:36:12;7.40;96.90
78054;DHT22;67726;45.636;11.752;2024-03-25T00:38:38;7.40;98.70
78054;DHT22;67726;45.636;11.752;2024-03-25T00:41:04;7.30;97.40
78054;DHT22;67726;45.636;11.752;2024-03-25T00:43:29;7.10;96.90
78054;DHT22;67726;45.636;11.752;2024-03-25T00:45:55;7.00;97.30
78054;DHT22;67726;45.636;11.752;2024-03-25T00:48:22;7.00;98.20
78054;DHT22;67726;45.636;11.752;2024-03-25T00:50:48;6.90;97.60
78054;DHT22;67726;45.636;11.752;2024-03-25T00:53:14;6.90;97.40
78054;DHT22;67726;45.636;11.752;2024-03-25T00:55:40;6.80;97.30
78054;DHT22;67726;45.636;11.752;2024-03-25T00:58:05;6.80;97.10
78054;DHT22;67726;45.636;11.752;2024-03-25T01:00:31;6.70;97.40
78054;DHT22;67726;45.636;11.752;2024-03-25T01:02:56;6.80;97.20
78054;DHT22;67726;45.636;11.752;2024-03-25T01:05:22;6.70;97.10
78054;DHT22;67726;45.636;11.752;2024-03-25T01:07:48;6.60;97.30
78054;DHT22;67726;45.636;11.752;2024-03-25T01:10:17;6.70;97.60
78054;DHT22;67726;45.636;11.752;2024-03-25T01:12:42;6.90;97.80
78054;DHT22;67726;45.636;11.752;2024-03-25T01:15:08;6.80;97.10
78054;DHT22;67726;45.636;11.752;2024-03-25T01:17:36;7.00;97.90
78054;DHT22;67726;45.636;11.752;2024-03-25T01:20:01;7.00;97.30
78054;DHT22;67726;45.636;11.752;2024-03-25T01:22:27;6.80;97.00
78054;DHT22;67726;45.636;11.752;2024-03-25T01:24:53;6.90;97.00
78054;DHT22;67726;45.636;11.752;2024-03-25T01:27:19;6.90;97.00
78054;DHT22;67726;45.636;11.752;2024-03-25T01:29:44;6.90;97.30
78054;DHT22;67726;45.636;11.752;2024-03-25T01:32:10;6.80;97.10
78054;DHT22;67726;45.636;11.752;2024-03-25T01:34:35;6.80;97.70
78054;DHT22;67726;45.636;11.752;2024-03-25T01:37:01;6.90;97.70
78054;DHT22;67726;45.636;11.752;2024-03-25T01:39:27;6.90;97.60
78054;DHT22;67726;45.636;11.752;2024-03-25T01:41:52;6.80;97.60
78054;DHT22;67726;45.636;11.752;2024-03-25T01:44:18;7.10;97.80
78054;DHT22;67726;45.636;11.752;2024-03-25T01:46:43;7.00;97.50
78054;DHT22;67726;45.636;11.752;2024-03-25T01:49:10;7.00;97.50
78054;DHT22;67726;45.636;11.752;2024-03-25T01:51:36;7.10;98.10
78054;DHT22;67726;45.636;11.752;2024-03-25T01:54:04;6.90;98.70
78054;DHT22;67726;45.636;11.752;2024-03-25T01:56:32;6.90;98.30
78054;DHT22;67726;45.636;11.752;2024-03-25T01:58:59;6.90;97.90
78054;DHT22;67726;45.636;11.752;2024-03-25T02:01:26;6.90;97.40
78054;DHT22;67726;45.636;11.752;2024-03-25T02:03:53;6.90;97.10
78054;DHT22;67726;45.636;11.752;2024-03-25T02:06:20;6.70;97.20
78054;DHT22;67726;45.636;11.752;2024-03-25T02:08:47;6.70;97.40
78054;DHT22;67726;45.636;11.752;2024-03-25T02:11:14;6.60;99.90
78054;DHT22;67726;45.636;11.752;2024-03-25T02:13:39;6.50;98.70
78054;DHT22;67726;45.636;11.752;2024-03-25T02:16:06;6.60;98.80
78054;DHT22;67726;45.636;11.752;2024-03-25T02:18:32;6.40;98.60
78054;DHT22;67726;45.636;11.752;2024-03-25T02:20:59;6.60;99.20
78054;DHT22;67726;45.636;11.752;2024-03-25T02:23:28;6.40;98.50
78054;DHT22;67726;45.636;11.752;2024-03-25T02:25:54;6.40;99.90
78054;DHT22;67726;45.636;11.752;2024-03-25T02:28:20;6.20;99.90
78054;DHT22;67726;45.636;11.752;2024-03-25T02:30:46;6.40;99.70
78054;DHT22;67726;45.636;11.752;2024-03-25T02:33:12;6.40;99.10
78054;DHT22;67726;45.636;11.752;2024-03-25T02:35:39;6.30;98.70
78054;DHT22;67726;45.636;11.752;2024-03-25T02:38:06;6.20;99.20
78054;DHT22;67726;45.636;11.752;2024-03-25T02:40:32;6.30;98.80
78054;DHT22;67726;45.636;11.752;2024-03-25T02:42:58;6.40;98.40
78054;DHT22;67726;45.636;11.752;2024-03-25T02:45:24;6.10;97.90
78054;DHT22;67726;45.636;11.752;2024-03-25T02:47:50;6.20;97.60
78054;DHT22;67726;45.636;11.752;2024-03-25T02:50:16;6.20;97.20
78054;DHT22;67726;45.636;11.752;2024-03-25T02:52:42;6.20;97.00
78054;DHT22;67726;45.636;11.752;2024-03-25T02:55:07;6.30;97.00
78054;DHT22;67726;45.636;11.752;2024-03-25T02:57:33;6.30;97.10
78054;DHT22;67726;45.636;11.752;2024-03-25T02:59:58;6.20;97.10
78054;DHT22;67726;45.636;11.752;2024-03-25T03:02:24;6.00;97.10
78054;DHT22;67726;45.636;11.752;2024-03-25T03:04:50;6.10;96.90
78054;DHT22;67726;45.636;11.752;2024-03-25T03:07:15;6.20;96.80
78054;DHT22;67726;45.636;11.752;2024-03-25T03:09:42;6.20;97.00
78054;DHT22;67726;45.636;11.752;2024-03-25T03:12:07;6.10;98.10
78054;DHT22;67726;45.636;11.752;2024-03-25T03:14:33;6.00;97.60
78054;DHT22;67726;45.636;11.752;2024-03-25T03:16:58;5.80;97.30
78054;DHT22;67726;45.636;11.752;2024-03-25T03:19:25;5.80;97.40
78054;DHT22;67726;45.636;11.752;2024-03-25T03:21:51;6.10;97.40
78054;DHT22;67726;45.636;11.752;2024-03-25T03:24:17;6.00;97.30
78054;DHT22;67726;45.636;11.752;2024-03-25T03:26:43;5.70;97.60
78054;DHT22;67726;45.636;11.752;2024-03-25T03:29:09;5.90;98.10
78054;DHT22;67726;45.636;11.752;2024-03-25T03:31:35;5.80;98.20
78054;DHT22;67726;45.636;11.752;2024-03-25T03:34:01;5.90;97.50
78054;DHT22;67726;45.636;11.752;2024-03-25T03:36:26;5.80;97.20
78054;DHT22;67726;45.636;11.752;2024-03-25T03:38:52;5.80;97.20
78054;DHT22;67726;45.636;11.752;2024-03-25T03:41:17;5.80;97.00
78054;DHT22;67726;45.636;11.752;2024-03-25T03:43:43;5.70;97.10
78054;DHT22;67726;45.636;11.752;2024-03-25T03:46:09;5.80;97.10
78054;DHT22;67726;45.636;11.752;2024-03-25T03:48:35;5.60;96.80
78054;DHT22;67726;45.636;11.752;2024-03-25T03:51:01;5.70;97.60
78054;DHT22;67726;45.636;11.752;2024-03-25T03:53:27;5.60;97.80
78054;DHT22;67726;45.636;11.752;2024-03-25T03:55:56;5.50;97.90
78054;DHT22;67726;45.636;11.752;2024-03-25T03:58:22;5.60;97.80
78054;DHT22;67726;45.636;11.752;2024-03-25T04:00:48;5.30;98.10
78054;DHT22;67726;45.636;11.752;2024-03-25T04:03:14;5.40;98.20
78054;DHT22;67726;45.636;11.752;2024-03-25T04:05:39;5.30;98.90
78054;DHT22;67726;45.636;11.752;2024-03-25T04:08:05;5.30;98.50
78054;DHT22;67726;45.636;11.752;2024-03-25T04:10:31;5.20;98.40
78054;DHT22;67726;45.636;11.752;2024-03-25T04:12:56;5.30;98.40
78054;DHT22;67726;45.636;11.752;2024-03-25T04:15:22;5.00;99.00
78054;DHT22;67726;45.636;11.752;2024-03-25T04:17:48;5.10;99.70
78054;DHT22;67726;45.636;11.752;2024-03-25T04:20:17;5.20;99.30
78054;DHT22;67726;45.636;11.752;2024-03-25T04:22:43;5.10;99.50
78054;DHT22;67726;45.636;11.752;2024-03-25T04:25:09;5.30;99.90
78054;DHT22;67726;45.636;11.752;2024-03-25T04:27:40;5.20;99.70
78054;DHT22;67726;45.636;11.752;2024-03-25T04:30:09;5.20;99.60
78054;DHT22;67726;45.636;11.752;2024-03-25T04:32:35;5.20;99.70
78054;DHT22;67726;45.636;11.752;2024-03-25T04:35:01;5.40;99.80
78054;DHT22;67726;45.636;11.752;2024-03-25T04:37:28;5.20;99.40
78054;DHT22;67726;45.636;11.752;2024-03-25T04:39:55;5.30;99.20
78054;DHT22;67726;45.636;11.752;2024-03-25T04:42:21;5.20;99.40
78054;DHT22;67726;45.636;11.752;2024-03-25T04:44:47;5.20;99.60
78054;DHT22;67726;45.636;11.752;2024-03-25T04:47:13;5.10;99.80
78054;DHT22;67726;45.636;11.752;2024-03-25T04:49:40;5.10;99.40
78054;DHT22;67726;45.636;11.752;2024-03-25T04:52:06;5.30;98.90
78054;DHT22;67726;45.636;11.752;2024-03-25T04:54:32;5.20;98.90
78054;DHT22;67726;45.636;11.752;2024-03-25T04:56:58;5.00;99.00
78054;DHT22;67726;45.636;11.752;2024-03-25T04:59:23;5.10;98.80
78054;DHT22;67726;45.636;11.752;2024-03-25T05:01:49;5.00;98.80
78054;DHT22;67726;45.636;11.752;2024-03-25T05:04:15;4.90;98.90
78054;DHT22;67726;45.636;11.752;2024-03-25T05:06:40;4.90;99.20
78054;DHT22;67726;45.636;11.752;2024-03-25T05:09:06;4.90;99.30
78054;DHT22;67726;45.636;11.752;2024-03-25T05:11:32;4.90;99.40
78054;DHT22;67726;45.636;11.752;2024-03-25T05:13:58;4.70;99.10
78054;DHT22;67726;45.636;11.752;2024-03-25T05:16:24;4.80;99.00
78054;DHT22;67726;45.636;11.752;2024-03-25T05:18:49;4.80;98.80
78054;DHT22;67726;45.636;11.752;2024-03-25T05:21:15;4.70;98.70
78054;DHT22;67726;45.636;11.752;2024-03-25T05:23:41;4.90;98.70
78054;DHT22;67726;45.636;11.752;2024-03-25T05:26:07;4.80;98.90
78054;DHT22;67726;45.636;11.752;2024-03-25T05:28:33;4.70;98.80
78054;DHT22;67726;45.636;11.752;2024-03-25T05:31:06;5.00;98.50
78054;DHT22;67726;45.636;11.752;2024-03-25T05:33:31;5.10;98.50
78054;DHT22;67726;45.636;11.752;2024-03-25T05:35:58;4.90;98.60
78054;DHT22;67726;45.636;11.752;2024-03-25T05:38:24;5.20;98.00
78054;DHT22;67726;45.636;11.752;2024-03-25T05:40:50;5.30;98.00
78054;DHT22;67726;45.636;11.752;2024-03-25T05:43:15;5.30;97.40
78054;DHT22;67726;45.636;11.752;2024-03-25T05:45:41;5.30;97.00
78054;DHT22;67726;45.636;11.752;2024-03-25T05:48:06;5.50;97.10
78054;DHT22;67726;45.636;11.752;2024-03-25T05:50:32;5.50;97.00
78054;DHT22;67726;45.636;11.752;2024-03-25T05:52:57;5.70;96.80
78054;DHT22;67726;45.636;11.752;2024-03-25T05:55:23;5.80;93.50
78054;DHT22;67726;45.636;11.752;2024-03-25T05:57:49;5.90;93.20
78054;DHT22;67726;45.636;11.752;2024-03-25T06:00:15;6.40;93.00
78054;DHT22;67726;45.636;11.752;2024-03-25T06:02:40;6.60;90.90
78054;DHT22;67726;45.636;11.752;2024-03-25T06:05:06;6.60;87.90
78054;DHT22;67726;45.636;11.752;2024-03-25T06:07:33;7.10;87.80
78054;DHT22;67726;45.636;11.752;2024-03-25T06:09:59;7.30;86.50
78054;DHT22;67726;45.636;11.752;2024-03-25T06:12:24;7.40;88.40
78054;DHT22;67726;45.636;11.752;2024-03-25T06:14:50;7.90;89.90
78054;DHT22;67726;45.636;11.752;2024-03-25T06:17:15;8.20;89.50
78054;DHT22;67726;45.636;11.752;2024-03-25T06:19:41;8.40;80.80
78054;DHT22;67726;45.636;11.752;2024-03-25T06:22:06;8.80;83.30
78054;DHT22;67726;45.636;11.752;2024-03-25T06:24:32;9.10;79.20
78054;DHT22;67726;45.636;11.752;2024-03-25T06:26:57;9.30;79.90
78054;DHT22;67726;45.636;11.752;2024-03-25T06:29:23;9.50;78.10
78054;DHT22;67726;45.636;11.752;2024-03-25T06:31:49;9.90;80.80
78054;DHT22;67726;45.636;11.752;2024-03-25T06:34:33;10.30;81.70
78054;DHT22;67726;45.636;11.752;2024-03-25T06:36:58;10.70;87.60
78054;DHT22;67726;45.636;11.752;2024-03-25T06:39:24;11.40;86.10
78054;DHT22;67726;45.636;11.752;2024-03-25T06:41:49;11.80;80.90
78054;DHT22;67726;45.636;11.752;2024-03-25T06:44:15;12.20;81.60
78054;DHT22;67726;45.636;11.752;2024-03-25T06:46:40;12.70;78.30
78054;DHT22;67726;45.636;11.752;2024-03-25T06:49:06;12.90;70.80
78054;DHT22;67726;45.636;11.752;2024-03-25T06:51:31;13.10;73.60
78054;DHT22;67726;45.636;11.752;2024-03-25T06:53:59;13.40;72.10
78054;DHT22;67726;45.636;11.752;2024-03-25T06:56:24;13.70;69.80
78054;DHT22;67726;45.636;11.752;2024-03-25T06:58:50;13.90;67.20
78054;DHT22;67726;45.636;11.752;2024-03-25T07:01:16;14.20;66.10
78054;DHT22;67726;45.636;11.752;2024-03-25T07:06:15;15.10;66.50
78054;DHT22;67726;45.636;11.752;2024-03-25T07:08:41;15.40;68.30
78054;DHT22;67726;45.636;11.752;2024-03-25T07:11:07;15.80;65.70
78054;DHT22;67726;45.636;11.752;2024-03-25T07:13:32;16.10;62.70
78054;DHT22;67726;45.636;11.752;2024-03-25T07:15:58;16.00;51.70
78054;DHT22;67726;45.636;11.752;2024-03-25T07:18:24;15.50;48.30
78054;DHT22;67726;45.636;11.752;2024-03-25T07:20:50;15.80;54.40
78054;DHT22;67726;45.636;11.752;2024-03-25T07:23:15;15.80;49.60
78054;DHT22;67726;45.636;11.752;2024-03-25T07:25:41;15.70;52.30
78054;DHT22;67726;45.636;11.752;2024-03-25T07:28:06;15.20;55.70
78054;DHT22;67726;45.636;11.752;2024-03-25T07:30:33;15.90;52.20
78054;DHT22;67726;45.636;11.752;2024-03-25T07:32:59;16.40;49.90
78054;DHT22;67726;45.636;11.752;2024-03-25T07:35:25;16.20;48.40
78054;DHT22;67726;45.636;11.752;2024-03-25T07:37:51;16.70;51.00
78054;DHT22;67726;45.636;11.752;2024-03-25T07:40:21;16.40;51.30
78054;DHT22;67726;45.636;11.752;2024-03-25T07:42:47;16.90;49.20
78054;DHT22;67726;45.636;11.752;2024-03-25T07:45:14;17.50;50.80
78054;DHT22;67726;45.636;11.752;2024-03-25T07:47:40;18.20;45.00
78054;DHT22;67726;45.636;11.752;2024-03-25T07:50:06;18.60;44.80
78054;DHT22;67726;45.636;11.752;2024-03-25T07:52:32;18.80;45.60
78054;DHT22;67726;45.636;11.752;2024-03-25T07:54:57;19.40;44.20
78054;DHT22;67726;45.636;11.752;2024-03-25T07:57:23;19.20;45.60
78054;DHT22;67726;45.636;11.752;2024-03-25T07:59:49;19.90;45.60
78054;DHT22;67726;45.636;11.752;2024-03-25T08:02:15;20.30;42.80
78054;DHT22;67726;45.636;11.752;2024-03-25T08:04:41;19.90;43.60
78054;DHT22;67726;45.636;11.752;2024-03-25T08:07:07;19.90;42.30
78054;DHT22;67726;45.636;11.752;2024-03-25T08:09:32;19.90;44.10
78054;DHT22;67726;45.636;11.752;2024-03-25T08:11:58;19.70;44.50
78054;DHT22;67726;45.636;11.752;2024-03-25T08:14:24;20.80;43.10
78054;DHT22;67726;45.636;11.752;2024-03-25T08:16:50;21.30;41.00
78054;DHT22;67726;45.636;11.752;2024-03-25T08:19:15;22.00;39.10
78054;DHT22;67726;45.636;11.752;2024-03-25T08:21:41;22.20;37.70
78054;DHT22;67726;45.636;11.752;2024-03-25T08:24:07;22.20;39.10
78054;DHT22;67726;45.636;11.752;2024-03-25T08:26:32;22.80;35.90
78054;DHT22;67726;45.636;11.752;2024-03-25T08:28:58;23.70;37.50
78054;DHT22;67726;45.636;11.752;2024-03-25T08:31:24;24.50;35.30
78054;DHT22;67726;45.636;11.752;2024-03-25T08:33:49;24.10;33.10
78054;DHT22;67726;45.636;11.752;2024-03-25T08:36:15;23.90;32.20
78054;DHT22;67726;45.636;11.752;2024-03-25T08:38:41;23.80;35.60
78054;DHT22;67726;45.636;11.752;2024-03-25T08:41:07;24.60;34.50
78054;DHT22;67726;45.636;11.752;2024-03-25T08:43:32;25.30;35.90
78054;DHT22;67726;45.636;11.752;2024-03-25T08:45:58;24.60;34.30
78054;DHT22;67726;45.636;11.752;2024-03-25T08:48:23;25.50;32.40
78054;DHT22;67726;45.636;11.752;2024-03-25T08:50:49;25.30;33.00
78054;DHT22;67726;45.636;11.752;2024-03-25T08:53:15;26.40;31.40
78054;DHT22;67726;45.636;11.752;2024-03-25T08:55:48;25.50;29.00
78054;DHT22;67726;45.636;11.752;2024-03-25T08:58:14;26.50;30.80
78054;DHT22;67726;45.636;11.752;2024-03-25T09:00:40;27.70;27.50
78054;DHT22;67726;45.636;11.752;2024-03-25T09:03:05;28.50;28.40
78054;DHT22;67726;45.636;11.752;2024-03-25T09:05:31;28.90;28.60
78054;DHT22;67726;45.636;11.752;2024-03-25T09:07:57;29.80;26.40
78054;DHT22;67726;45.636;11.752;2024-03-25T09:10:24;29.40;26.40
78054;DHT22;67726;45.636;11.752;2024-03-25T09:13:16;28.70;25.20
78054;DHT22;67726;45.636;11.752;2024-03-25T09:15:57;26.40;26.50
78054;DHT22;67726;45.636;11.752;2024-03-25T09:18:38;25.20;29.60
78054;DHT22;67726;45.636;11.752;2024-03-25T09:21:04;25.40;29.00
78054;DHT22;67726;45.636;11.752;2024-03-25T09:23:30;25.30;28.00
78054;DHT22;67726;45.636;11.752;2024-03-25T09:25:56;24.90;30.00
78054;DHT22;67726;45.636;11.752;2024-03-25T09:28:21;24.10;28.80
78054;DHT22;67726;45.636;11.752;2024-03-25T09:30:50;25.60;29.90
78054;DHT22;67726;45.636;11.752;2024-03-25T09:33:16;26.10;29.50
78054;DHT22;67726;45.636;11.752;2024-03-25T09:35:41;26.50;28.60
78054;DHT22;67726;45.636;11.752;2024-03-25T09:38:07;26.10;30.40
78054;DHT22;67726;45.636;11.752;2024-03-25T09:40:35;27.40;29.10
78054;DHT22;67726;45.636;11.752;2024-03-25T09:43:03;28.30;25.60
78054;DHT22;67726;45.636;11.752;2024-03-25T09:45:32;26.80;25.10
78054;DHT22;67726;45.636;11.752;2024-03-25T09:47:59;26.30;27.10
78054;DHT22;67726;45.636;11.752;2024-03-25T09:50:25;26.90;26.10
78054;DHT22;67726;45.636;11.752;2024-03-25T09:52:52;26.30;27.80
78054;DHT22;67726;45.636;11.752;2024-03-25T09:55:17;25.90;27.50
78054;DHT22;67726;45.636;11.752;2024-03-25T09:57:44;26.40;26.90
78054;DHT22;67726;45.636;11.752;2024-03-25T10:00:10;27.40;26.30
78054;DHT22;67726;45.636;11.752;2024-03-25T10:02:40;27.50;25.70
78054;DHT22;67726;45.636;11.752;2024-03-25T10:05:06;27.00;24.10
78054;DHT22;67726;45.636;11.752;2024-03-25T10:07:32;26.50;23.00
78054;DHT22;67726;45.636;11.752;2024-03-25T10:09:58;26.90;22.80
78054;DHT22;67726;45.636;11.752;2024-03-25T10:12:24;26.70;21.90
78054;DHT22;67726;45.636;11.752;2024-03-25T10:14:50;27.00;22.70
78054;DHT22;67726;45.636;11.752;2024-03-25T10:17:16;26.70;21.60
78054;DHT22;67726;45.636;11.752;2024-03-25T10:19:42;28.00;22.20
78054;DHT22;67726;45.636;11.752;2024-03-25T10:22:08;28.40;21.20
78054;DHT22;67726;45.636;11.752;2024-03-25T10:24:52;29.40;20.00
78054;DHT22;67726;45.636;11.752;2024-03-25T10:27:22;29.10;18.40
78054;DHT22;67726;45.636;11.752;2024-03-25T10:29:53;28.50;19.40
78054;DHT22;67726;45.636;11.752;2024-03-25T10:32:20;29.40;19.90
78054;DHT22;67726;45.636;11.752;2024-03-25T10:34:46;29.50;18.60
78054;DHT22;67726;45.636;11.752;2024-03-25T10:37:13;29.30;18.10
78054;DHT22;67726;45.636;11.752;2024-03-25T10:39:47;28.90;18.90
78054;DHT22;67726;45.636;11.752;2024-03-25T10:42:16;29.50;18.90
78054;DHT22;67726;45.636;11.752;2024-03-25T10:44:44;29.50;18.70
78054;DHT22;67726;45.636;11.752;2024-03-25T10:47:12;29.30;18.40
78054;DHT22;67726;45.636;11.752;2024-03-25T10:49:50;28.90;17.70
78054;DHT22;67726;45.636;11.752;2024-03-25T10:52:18;28.20;18.20
78054;DHT22;67726;45.636;11.752;2024-03-25T10:54:47;27.30;19.00
78054;DHT22;67726;45.636;11.752;2024-03-25T10:57:20;26.70;19.60
78054;DHT22;67726;45.636;11.752;2024-03-25T10:59:58;26.80;19.70
78054;DHT22;67726;45.636;11.752;2024-03-25T11:02:35;25.90;21.50
78054;DHT22;67726;45.636;11.752;2024-03-25T11:05:01;26.60;20.70
78054;DHT22;67726;45.636;11.752;2024-03-25T11:07:31;27.40;19.90
78054;DHT22;67726;45.636;11.752;2024-03-25T11:10:04;27.20;19.40
78054;DHT22;67726;45.636;11.752;2024-03-25T11:12:38;26.40;20.30
78054;DHT22;67726;45.636;11.752;2024-03-25T11:15:06;25.80;22.10
78054;DHT22;67726;45.636;11.752;2024-03-25T11:17:35;25.50;22.80
78054;DHT22;67726;45.636;11.752;2024-03-25T11:20:10;25.00;23.80
78054;DHT22;67726;45.636;11.752;2024-03-25T11:22:50;24.40;24.00
78054;DHT22;67726;45.636;11.752;2024-03-25T11:25:16;24.50;25.20
78054;DHT22;67726;45.636;11.752;2024-03-25T11:27:45;24.20;25.90
78054;DHT22;67726;45.636;11.752;2024-03-25T11:30:14;22.60;28.70
78054;DHT22;67726;45.636;11.752;2024-03-25T11:32:44;22.10;30.50
78054;DHT22;67726;45.636;11.752;2024-03-25T11:35:10;22.10;29.60
78054;DHT22;67726;45.636;11.752;2024-03-25T11:37:42;22.00;29.90
78054;DHT22;67726;45.636;11.752;2024-03-25T11:40:12;21.40;31.70
78054;DHT22;67726;45.636;11.752;2024-03-25T11:42:40;21.20;32.00
78054;DHT22;67726;45.636;11.752;2024-03-25T11:45:26;20.90;30.30
78054;DHT22;67726;45.636;11.752;2024-03-25T11:47:52;21.40;29.50
78054;DHT22;67726;45.636;11.752;2024-03-25T11:50:19;21.90;30.20
78054;DHT22;67726;45.636;11.752;2024-03-25T11:52:45;22.20;30.20
78054;DHT22;67726;45.636;11.752;2024-03-25T11:55:16;22.30;30.80
78054;DHT22;67726;45.636;11.752;2024-03-25T11:57:42;22.40;30.80
78054;DHT22;67726;45.636;11.752;2024-03-25T12:00:08;22.20;31.10
78054;DHT22;67726;45.636;11.752;2024-03-25T12:02:43;21.70;31.50
78054;DHT22;67726;45.636;11.752;2024-03-25T12:05:11;21.90;31.70
78054;DHT22;67726;45.636;11.752;2024-03-25T12:07:36;21.30;33.10
78054;DHT22;67726;45.636;11.752;2024-03-25T12:10:03;21.10;34.40
78054;DHT22;67726;45.636;11.752;2024-03-25T12:12:47;21.10;34.70
78054;DHT22;67726;45.636;11.752;2024-03-25T12:15:13;21.60;33.90
78054;DHT22;67726;45.636;11.752;2024-03-25T12:17:39;21.80;32.50
78054;DHT22;67726;45.636;11.752;2024-03-25T12:20:06;22.50;30.10
78054;DHT22;67726;45.636;11.752;2024-03-25T12:22:39;23.00;28.70
78054;DHT22;67726;45.636;11.752;2024-03-25T12:25:06;22.80;30.60
78054;DHT22;67726;45.636;11.752;2024-03-25T12:27:33;21.70;31.30
78054;DHT22;67726;45.636;11.752;2024-03-25T12:30:09;22.00;31.20
78054;DHT22;67726;45.636;11.752;2024-03-25T12:32:44;20.90;32.10
78054;DHT22;67726;45.636;11.752;2024-03-25T12:35:14;20.70;32.10
78054;DHT22;67726;45.636;11.752;2024-03-25T12:37:44;20.70;33.80
78054;DHT22;67726;45.636;11.752;2024-03-25T12:40:11;21.40;32.40
78054;DHT22;67726;45.636;11.752;2024-03-25T12:42:38;21.80;32.60
78054;DHT22;67726;45.636;11.752;2024-03-25T12:45:07;22.00;31.90
78054;DHT22;67726;45.636;11.752;2024-03-25T12:47:33;22.30;31.70
78054;DHT22;67726;45.636;11.752;2024-03-25T12:49:59;22.30;32.70
78054;DHT22;67726;45.636;11.752;2024-03-25T12:52:25;22.30;31.00
78054;DHT22;67726;45.636;11.752;2024-03-25T12:54:51;21.40;32.80
78054;DHT22;67726;45.636;11.752;2024-03-25T12:57:17;21.60;32.50
78054;DHT22;67726;45.636;11.752;2024-03-25T12:59:44;21.10;33.40
78054;DHT22;67726;45.636;11.752;2024-03-25T13:02:12;21.40;31.30
78054;DHT22;67726;45.636;11.752;2024-03-25T13:04:38;21.80;31.60
78054;DHT22;67726;45.636;11.752;2024-03-25T13:07:05;21.90;30.30
78054;DHT22;67726;45.636;11.752;2024-03-25T13:09:31;22.20;29.90
78054;DHT22;67726;45.636;11.752;2024-03-25T13:12:09;22.40;29.10
78054;DHT22;67726;45.636;11.752;2024-03-25T13:14:35;22.20;27.40
78054;DHT22;67726;45.636;11.752;2024-03-25T13:17:00;22.50;27.60
78054;DHT22;67726;45.636;11.752;2024-03-25T13:19:26;22.90;28.20
78054;DHT22;67726;45.636;11.752;2024-03-25T13:21:55;23.30;27.50
78054;DHT22;67726;45.636;11.752;2024-03-25T13:24:21;23.70;27.30
78054;DHT22;67726;45.636;11.752;2024-03-25T13:26:46;24.30;28.80
78054;DHT22;67726;45.636;11.752;2024-03-25T13:29:12;24.70;25.30
78054;DHT22;67726;45.636;11.752;2024-03-25T13:31:37;24.70;24.00
78054;DHT22;67726;45.636;11.752;2024-03-25T13:34:03;24.80;23.60
78054;DHT22;67726;45.636;11.752;2024-03-25T13:36:29;24.80;24.70
78054;DHT22;67726;45.636;11.752;2024-03-25T13:45:04;24.10;25.30
78054;DHT22;67726;45.636;11.752;2024-03-25T13:47:32;23.80;24.70
78054;DHT22;67726;45.636;11.752;2024-03-25T13:50:05;23.20;26.80
78054;DHT22;67726;45.636;11.752;2024-03-25T13:52:33;23.20;28.70
78054;DHT22;67726;45.636;11.752;2024-03-25T13:54:59;23.20;28.60
78054;DHT22;67726;45.636;11.752;2024-03-25T13:57:24;22.90;28.70
78054;DHT22;67726;45.636;11.752;2024-03-25T13:59:53;22.90;27.60
78054;DHT22;67726;45.636;11.752;2024-03-25T14:02:19;23.10;27.70
78054;DHT22;67726;45.636;11.752;2024-03-25T14:04:44;23.20;27.50
78054;DHT22;67726;45.636;11.752;2024-03-25T14:07:11;22.90;26.40
78054;DHT22;67726;45.636;11.752;2024-03-25T14:09:37;22.50;27.20
78054;DHT22;67726;45.636;11.752;2024-03-25T14:12:02;22.50;27.40
78054;DHT22;67726;45.636;11.752;2024-03-25T14:14:29;22.40;29.40
78054;DHT22;67726;45.636;11.752;2024-03-25T14:16:55;22.70;27.80
78054;DHT22;67726;45.636;11.752;2024-03-25T14:19:27;22.60;28.70
78054;DHT22;67726;45.636;11.752;2024-03-25T14:21:53;22.50;27.60
78054;DHT22;67726;45.636;11.752;2024-03-25T14:24:18;21.70;28.30
78054;DHT22;67726;45.636;11.752;2024-03-25T14:26:44;21.10;29.50
78054;DHT22;67726;45.636;11.752;2024-03-25T14:29:10;20.80;31.00
78054;DHT22;67726;45.636;11.752;2024-03-25T14:31:36;20.70;30.90
78054;DHT22;67726;45.636;11.752;2024-03-25T14:34:01;20.70;32.90
78054;DHT22;67726;45.636;11.752;2024-03-25T14:36:27;20.80;33.30
78054;DHT22;67726;45.636;11.752;2024-03-25T14:38:53;21.20;31.40
78054;DHT22;67726;45.636;11.752;2024-03-25T14:41:19;21.10;31.70
78054;DHT22;67726;45.636;11.752;2024-03-25T14:43:45;21.10;31.60
78054;DHT22;67726;45.636;11.752;2024-03-25T14:46:11;21.10;31.40
78054;DHT22;67726;45.636;11.752;2024-03-25T14:48:37;21.20;31.60
78054;DHT22;67726;45.636;11.752;2024-03-25T14:51:03;21.30;31.50
78054;DHT22;67726;45.636;11.752;2024-03-25T14:53:29;21.20;30.30
78054;DHT22;67726;45.636;11.752;2024-03-25T14:55:55;21.30;30.80
78054;DHT22;67726;45.636;11.752;2024-03-25T14:58:20;21.20;31.00
78054;DHT22;67726;45.636;11.752;2024-03-25T15:00:46;20.90;31.40
78054;DHT22;67726;45.636;11.752;2024-03-25T15:03:12;20.80;33.60
78054;DHT22;67726;45.636;11.752;2024-03-25T15:05:37;20.80;33.50
78054;DHT22;67726;45.636;11.752;2024-03-25T15:08:03;20.70;33.50
78054;DHT22;67726;45.636;11.752;2024-03-25T15:10:33;20.20;34.30
78054;DHT22;67726;45.636;11.752;2024-03-25T15:12:59;19.90;35.60
78054;DHT22;67726;45.636;11.752;2024-03-25T15:15:25;19.90;35.30
78054;DHT22;67726;45.636;11.752;2024-03-25T15:17:50;19.80;35.40
78054;DHT22;67726;45.636;11.752;2024-03-25T15:20:16;19.70;34.90
78054;DHT22;67726;45.636;11.752;2024-03-25T15:22:42;19.40;35.60
78054;DHT22;67726;45.636;11.752;2024-03-25T15:25:09;19.10;35.70
78054;DHT22;67726;45.636;11.752;2024-03-25T15:27:36;19.00;35.40
78054;DHT22;67726;45.636;11.752;2024-03-25T15:30:06;19.00;34.90